Pagina principale
METAR-TAF:

METAR-TAF

Aeroporti :

Poprad, Slovacchia

latitudine: 49-04N, longitudine: 020-15E, altezza: 694 m

Osservazione

Il bollettino è stato emesso 20 minuti fa, alle 13:30 UTC
Vento 6 kt da sud-est, variando fra est e sud
Temperature 23°C
Umidità 61%
Pressione 1017 hPa
Visibilità 10 km o più
Nubi sparse ad un'altezza di 4600 ft

METAR: LZTT 171330Z 14006KT 090V180 9999 SCT046 23/15 Q1017 NOSIG

Ora: 15:50 (13:50 UTC)

Previsione

Il bollettino è stato emesso 2 ore e 35 minuti fa, alle 11:15 UTC
Previsione valida dal 17 alle 12 UTC al 18 alle 12 UTC
Vento 6 kt da est
Visibilità 10 km o più
Nubi sparse ad un'altezza di 5000 ft
Temporaneamente
dal 17 alle 20 UTC al 18 alle 07 UTC
Vento 5 kt da ovest

TAF: LZTT 171115Z 1712/1812 08006KT 9999 SCT050 TEMPO 1720/1807 26005KT

Osservazioni e previsioni meteorologiche di più di 4000 aeroporti (messaggi METAR e TAF).

Le stazioni disponibili sono rappresentate dai dischi gialli e rossi sulla carta.

Puntare il mouse per vedere il nome della stazione.

Clicca sopra per visualizzare le osservazioni e previsioni meteorologiche.

Per cambiare la mappa : fare clic sui pulsanti verdi con una croce nera per ingrandire, il pulsante verde con un trattino per diminuire, o sulla freccia verde per le mappe adiacenti.


METAR-TAF: